createdAt,value
2019-02-16T00:00:17.031Z,0
2019-02-16T00:01:09.795Z,0
2019-02-16T00:02:02.145Z,0
2019-02-16T00:02:54.568Z,0
2019-02-16T00:03:47.206Z,0
2019-02-16T00:04:39.516Z,0
2019-02-16T00:05:32.235Z,0
2019-02-16T00:06:24.670Z,0
2019-02-16T00:07:17.427Z,0
2019-02-16T00:08:09.692Z,0
2019-02-16T00:09:01.540Z,0
2019-02-16T00:09:54.095Z,0
2019-02-16T00:10:45.897Z,0
2019-02-16T00:11:38.022Z,0
2019-02-16T00:12:29.706Z,0
2019-02-16T00:13:21.903Z,0
2019-02-16T00:14:14.071Z,0
2019-02-16T00:15:06.392Z,0
2019-02-16T00:15:58.454Z,0
2019-02-16T00:16:50.551Z,0
2019-02-16T00:17:43.115Z,0
2019-02-16T00:18:35.896Z,0
2019-02-16T00:19:29.259Z,0
2019-02-16T00:20:21.181Z,0
2019-02-16T00:21:13.441Z,0
2019-02-16T00:22:05.535Z,0
2019-02-16T00:22:57.945Z,0
2019-02-16T00:23:49.965Z,0
2019-02-16T00:24:42.364Z,0
2019-02-16T00:25:34.576Z,0
2019-02-16T00:26:26.448Z,0
2019-02-16T00:27:18.782Z,0
2019-02-16T00:28:10.828Z,0
2019-02-16T00:29:02.556Z,0
2019-02-16T00:29:54.486Z,0
2019-02-16T00:30:47.740Z,0
2019-02-16T00:31:40.426Z,0
2019-02-16T00:32:32.959Z,0
2019-02-16T00:33:24.954Z,0
2019-02-16T00:34:17.491Z,0
2019-02-16T00:35:09.302Z,0
2019-02-16T00:35:49.666Z,0
2019-02-16T00:36:30.097Z,0
2019-02-16T00:37:10.596Z,0
2019-02-16T00:37:51.066Z,0
2019-02-16T00:38:31.427Z,0
2019-02-16T00:39:11.934Z,0
2019-02-16T00:40:01.443Z,0
2019-02-16T00:40:41.761Z,0
2019-02-16T00:41:22.233Z,0
2019-02-16T00:42:02.611Z,0
2019-02-16T00:42:43.123Z,0
2019-02-16T00:43:23.842Z,0
2019-02-16T00:44:04.181Z,0
2019-02-16T00:44:44.679Z,0
2019-02-16T00:45:25.180Z,0
2019-02-16T00:46:05.507Z,0
2019-02-16T00:46:46.036Z,0
2019-02-16T00:47:26.506Z,0
2019-02-16T00:48:06.984Z,0
2019-02-16T00:48:47.443Z,0
2019-02-16T00:49:27.794Z,0
2019-02-16T00:50:08.147Z,0
2019-02-16T00:50:48.706Z,0
2019-02-16T00:51:29.093Z,0
2019-02-16T00:52:09.776Z,0
2019-02-16T00:52:50.228Z,0
2019-02-16T00:53:30.684Z,0
2019-02-16T00:54:11.191Z,0
2019-02-16T00:54:51.723Z,0
2019-02-16T00:55:32.008Z,0
2019-02-16T00:56:12.454Z,0
2019-02-16T00:56:53.104Z,0
2019-02-16T00:57:33.458Z,0
2019-02-16T00:58:14.229Z,0
2019-02-16T00:58:54.588Z,0
2019-02-16T00:59:34.946Z,0
2019-02-16T01:00:15.374Z,0
2019-02-16T01:00:55.733Z,0
2019-02-16T01:01:36.316Z,0
2019-02-16T01:02:16.686Z,0
2019-02-16T01:02:57.422Z,0
2019-02-16T01:03:37.892Z,0
2019-02-16T01:04:18.403Z,0
2019-02-16T01:04:58.979Z,0
2019-02-16T01:05:39.501Z,0
2019-02-16T01:06:19.979Z,0
2019-02-16T01:07:00.508Z,0
2019-02-16T01:07:40.984Z,0
2019-02-16T01:08:21.457Z,0
2019-02-16T01:09:01.702Z,0
2019-02-16T01:09:42.226Z,0
2019-02-16T01:10:22.750Z,0
2019-02-16T01:11:03.194Z,0
2019-02-16T01:11:43.553Z,0
2019-02-16T01:12:24.063Z,0
2019-02-16T01:13:04.522Z,0
2019-02-16T01:13:44.778Z,0
2019-02-16T01:14:25.334Z,0
2019-02-16T01:15:05.561Z,0
2019-02-16T01:15:46.101Z,0
2019-02-16T01:16:26.444Z,0
2019-02-16T01:17:06.831Z,0
2019-02-16T01:17:47.584Z,0
2019-02-16T01:18:28.163Z,0
2019-02-16T01:19:08.680Z,0
2019-02-16T01:19:49.082Z,0
2019-02-16T01:20:29.876Z,0
2019-02-16T01:21:10.451Z,0
2019-02-16T01:21:50.660Z,0
2019-02-16T01:22:31.218Z,0
2019-02-16T01:23:11.567Z,0
2019-02-16T01:23:51.962Z,0
2019-02-16T01:24:32.350Z,0
2019-02-16T01:25:12.694Z,0
2019-02-16T01:25:53.178Z,0
2019-02-16T01:26:33.647Z,0
2019-02-16T01:27:14.205Z,0
2019-02-16T01:27:54.592Z,0
2019-02-16T01:28:35.299Z,0
2019-02-16T01:29:15.772Z,0
2019-02-16T01:29:56.233Z,0
2019-02-16T01:30:36.631Z,0
2019-02-16T01:31:17.138Z,0
2019-02-16T01:31:57.615Z,0
2019-02-16T01:32:38.079Z,0
2019-02-16T01:33:18.506Z,0
2019-02-16T01:33:58.994Z,0
2019-02-16T01:34:39.373Z,0
2019-02-16T01:35:20.100Z,0
2019-02-16T01:36:00.469Z,0
2019-02-16T01:36:41.303Z,0
2019-02-16T01:37:21.608Z,0
2019-02-16T01:38:02.308Z,0
2019-02-16T01:38:42.775Z,0
2019-02-16T01:39:23.385Z,0
2019-02-16T01:40:03.865Z,0
2019-02-16T01:40:44.388Z,0
2019-02-16T01:41:24.729Z,0
2019-02-16T01:42:05.557Z,0
2019-02-16T01:42:45.918Z,0
2019-02-16T01:43:26.435Z,0
2019-02-16T01:44:06.847Z,0
2019-02-16T01:44:47.239Z,0
2019-02-16T01:45:27.682Z,0
2019-02-16T01:46:08.038Z,0
2019-02-16T01:46:48.579Z,0
2019-02-16T01:47:28.967Z,0
2019-02-16T01:48:09.476Z,0
2019-02-16T01:48:50.004Z,0
2019-02-16T01:49:30.443Z,0
2019-02-16T01:50:10.913Z,0
2019-02-16T01:50:51.386Z,0
2019-02-16T01:51:32.347Z,0
2019-02-16T01:52:12.613Z,0
2019-02-16T01:52:52.829Z,0
2019-02-16T01:53:33.271Z,0
2019-02-16T01:54:13.613Z,0
2019-02-16T01:54:54.028Z,0
2019-02-16T01:55:34.326Z,0
2019-02-16T01:56:14.863Z,0
2019-02-16T01:56:55.576Z,0
2019-02-16T01:57:35.916Z,0
2019-02-16T01:58:16.307Z,0
2019-02-16T01:58:56.860Z,0
2019-02-16T01:59:37.164Z,0
2019-02-16T02:00:17.619Z,0
2019-02-16T02:00:58.081Z,0
2019-02-16T02:01:38.623Z,0
2019-02-16T02:02:18.944Z,0
2019-02-16T02:02:59.324Z,0
2019-02-16T02:03:39.818Z,0
2019-02-16T02:04:20.319Z,0
2019-02-16T02:05:00.537Z,0
2019-02-16T02:05:41.255Z,0
2019-02-16T02:06:21.573Z,0
2019-02-16T02:07:02.089Z,0
2019-02-16T02:07:43.417Z,0
2019-02-16T02:08:23.769Z,0
2019-02-16T02:09:04.242Z,0
2019-02-16T02:09:44.618Z,0
2019-02-16T02:10:25.095Z,0
2019-02-16T02:11:05.594Z,0
2019-02-16T02:11:45.963Z,0
2019-02-16T02:12:26.405Z,0
2019-02-16T02:13:06.977Z,0
2019-02-16T02:13:47.467Z,0
2019-02-16T02:14:27.948Z,0
2019-02-16T02:15:08.368Z,0
2019-02-16T02:15:48.721Z,0
2019-02-16T02:16:29.194Z,0
2019-02-16T02:17:09.955Z,0
2019-02-16T02:17:50.346Z,0
2019-02-16T02:18:30.734Z,0
2019-02-16T02:19:11.102Z,0
2019-02-16T02:19:51.518Z,0
2019-02-16T02:20:32.132Z,0
2019-02-16T02:21:12.414Z,0
2019-02-16T02:21:53.031Z,0
2019-02-16T02:22:33.573Z,0
2019-02-16T02:23:13.912Z,0
2019-02-16T02:23:54.318Z,0
2019-02-16T02:24:34.744Z,0
2019-02-16T02:25:15.277Z,0
2019-02-16T02:25:55.746Z,0
2019-02-16T02:26:36.061Z,0
2019-02-16T02:27:16.504Z,0
2019-02-16T02:27:57.299Z,0
2019-02-16T02:28:37.703Z,0
2019-02-16T02:29:18.248Z,0
2019-02-16T02:29:58.625Z,0
2019-02-16T02:30:39.488Z,0
2019-02-16T02:31:19.802Z,0
2019-02-16T02:32:00.443Z,0
2019-02-16T02:32:40.756Z,0
2019-02-16T02:33:21.471Z,0
2019-02-16T02:34:01.861Z,0
2019-02-16T02:34:42.290Z,0
2019-02-16T02:35:23.520Z,0
2019-02-16T02:36:04.133Z,0
2019-02-16T02:36:44.468Z,0
2019-02-16T02:37:25.013Z,0
2019-02-16T02:38:05.418Z,0
2019-02-16T02:38:45.734Z,0
2019-02-16T02:39:26.191Z,0
2019-02-16T02:40:06.655Z,0
2019-02-16T02:40:47.288Z,0
2019-02-16T02:41:27.342Z,0
2019-02-16T02:42:07.714Z,0
2019-02-16T02:42:48.232Z,0
2019-02-16T02:43:28.645Z,0
2019-02-16T02:44:09.228Z,0
2019-02-16T02:44:49.685Z,0
2019-02-16T02:45:30.064Z,0
2019-02-16T02:46:10.496Z,0
2019-02-16T02:46:51.994Z,0
2019-02-16T02:47:32.506Z,0
2019-02-16T02:48:12.962Z,0
2019-02-16T02:48:53.484Z,0
2019-02-16T02:49:33.863Z,0
2019-02-16T02:50:14.300Z,0
2019-02-16T02:50:54.739Z,0
2019-02-16T02:51:35.221Z,0
2019-02-16T02:52:15.537Z,0
2019-02-16T02:52:56.604Z,0
2019-02-16T02:53:36.667Z,0
2019-02-16T02:54:17.055Z,0
2019-02-16T02:54:57.588Z,0
2019-02-16T02:55:37.871Z,0
2019-02-16T02:56:18.472Z,0
2019-02-16T02:56:58.919Z,0
2019-02-16T02:57:39.352Z,0
2019-02-16T02:58:19.797Z,0
2019-02-16T02:59:00.195Z,0
2019-02-16T02:59:40.866Z,0
2019-02-16T03:00:21.161Z,0
2019-02-16T03:01:01.589Z,0
2019-02-16T03:01:41.951Z,0
2019-02-16T03:02:22.415Z,0
2019-02-16T03:03:02.917Z,0
2019-02-16T03:03:43.244Z,0
2019-02-16T03:04:23.922Z,0
2019-02-16T03:05:04.204Z,0
2019-02-16T03:05:44.690Z,0
2019-02-16T03:06:25.081Z,0
2019-02-16T03:07:05.493Z,0
2019-02-16T03:07:45.749Z,0
2019-02-16T03:08:26.303Z,0
2019-02-16T03:09:07.500Z,0
2019-02-16T03:09:47.234Z,0
2019-02-16T03:10:27.665Z,0
2019-02-16T03:11:08.013Z,0
2019-02-16T03:11:48.386Z,0
2019-02-16T03:12:28.896Z,0
2019-02-16T03:13:09.370Z,0
2019-02-16T03:13:49.857Z,0
2019-02-16T03:14:30.186Z,0
2019-02-16T03:15:10.579Z,0
2019-02-16T03:15:50.957Z,0
2019-02-16T03:16:31.310Z,0
2019-02-16T03:17:11.724Z,0
2019-02-16T03:17:52.080Z,0
2019-02-16T03:18:32.490Z,0
2019-02-16T03:19:12.890Z,0
2019-02-16T03:19:53.219Z,0
2019-02-16T03:20:33.693Z,0
2019-02-16T03:21:13.992Z,0
2019-02-16T03:22:02.412Z,0
2019-02-16T03:22:34.956Z,0
2019-02-16T03:23:15.337Z,0
2019-02-16T03:23:55.704Z,0
2019-02-16T03:24:36.089Z,0
2019-02-16T03:25:16.447Z,0
2019-02-16T03:25:56.938Z,0
2019-02-16T03:26:37.398Z,0
2019-02-16T03:27:17.665Z,0
2019-02-16T03:27:58.101Z,0
2019-02-16T03:28:38.480Z,0
2019-02-16T03:29:18.900Z,0
2019-02-16T03:29:59.383Z,0
2019-02-16T03:30:39.703Z,0
2019-02-16T03:31:20.138Z,0
2019-02-16T03:32:00.565Z,0
2019-02-16T03:32:40.993Z,0
2019-02-16T03:33:21.408Z,0
2019-02-16T03:34:01.778Z,0
2019-02-16T03:34:42.265Z,0
2019-02-16T03:35:22.523Z,0
2019-02-16T03:36:03.005Z,0
2019-02-16T03:36:43.403Z,0
2019-02-16T03:37:23.758Z,0
2019-02-16T03:38:04.177Z,0
2019-02-16T03:38:44.566Z,0
2019-02-16T03:39:24.911Z,0
2019-02-16T03:40:05.397Z,0
2019-02-16T03:40:45.738Z,0
2019-02-16T03:41:26.108Z,0
2019-02-16T03:42:06.495Z,0
2019-02-16T03:42:46.963Z,0
2019-02-16T03:43:27.419Z,0
2019-02-16T03:44:07.844Z,0
2019-02-16T03:44:48.241Z,0
2019-02-16T03:45:28.566Z,0
2019-02-16T03:46:08.967Z,0
2019-02-16T03:46:49.380Z,0
2019-02-16T03:47:29.909Z,0
2019-02-16T03:48:10.382Z,0
2019-02-16T03:48:50.945Z,0
2019-02-16T03:49:31.258Z,0
2019-02-16T03:50:11.790Z,0
2019-02-16T03:50:52.171Z,0
2019-02-16T03:51:32.551Z,0
2019-02-16T03:52:14.238Z,0
2019-02-16T03:52:53.322Z,0
2019-02-16T03:53:33.808Z,0
2019-02-16T03:54:14.178Z,0
2019-02-16T03:54:54.506Z,0
2019-02-16T03:55:34.824Z,0
2019-02-16T03:56:15.348Z,0
2019-02-16T03:56:55.678Z,0
2019-02-16T03:57:36.125Z,0
2019-02-16T03:58:16.461Z,0
2019-02-16T03:58:56.982Z,0
2019-02-16T03:59:37.391Z,0
2019-02-16T04:00:17.704Z,0
2019-02-16T04:00:58.120Z,0
2019-02-16T04:01:38.516Z,0
2019-02-16T04:02:18.987Z,0
2019-02-16T04:02:59.267Z,0
2019-02-16T04:03:39.837Z,0
2019-02-16T04:04:20.204Z,0
2019-02-16T04:05:00.596Z,0
2019-02-16T04:05:40.966Z,0
2019-02-16T04:06:21.405Z,0
2019-02-16T04:07:01.787Z,0
2019-02-16T04:07:42.196Z,0
2019-02-16T04:08:22.610Z,0
2019-02-16T04:09:02.996Z,0
2019-02-16T04:09:43.420Z,0
2019-02-16T04:10:23.795Z,0
2019-02-16T04:11:04.172Z,0
2019-02-16T04:11:44.651Z,0
2019-02-16T04:12:25.119Z,0
2019-02-16T04:13:05.569Z,0
2019-02-16T04:13:45.922Z,0
2019-02-16T04:14:26.299Z,0
2019-02-16T04:15:06.765Z,0
2019-02-16T04:15:47.146Z,0
2019-02-16T04:16:27.949Z,0
2019-02-16T04:17:08.498Z,0
2019-02-16T04:17:48.782Z,0
2019-02-16T04:18:29.078Z,0
2019-02-16T04:19:09.637Z,0
2019-02-16T04:19:50.096Z,0
2019-02-16T04:20:30.392Z,0
2019-02-16T04:21:10.847Z,0
2019-02-16T04:21:51.209Z,0
2019-02-16T04:22:31.572Z,0
2019-02-16T04:23:12.006Z,0
2019-02-16T04:23:52.398Z,0
2019-02-16T04:24:32.865Z,0
2019-02-16T04:25:13.217Z,0
2019-02-16T04:25:53.765Z,0
2019-02-16T04:26:34.294Z,0
2019-02-16T04:27:14.628Z,0
2019-02-16T04:27:55.009Z,0
2019-02-16T05:06:17.162Z,0
2019-02-16T05:07:09.759Z,0
2019-02-16T05:08:01.986Z,0
2019-02-16T05:08:54.295Z,0
2019-02-16T05:09:46.577Z,0
2019-02-16T05:10:39.462Z,0
2019-02-16T05:11:31.333Z,0
2019-02-16T05:12:23.248Z,0
2019-02-16T05:13:15.170Z,0
2019-02-16T05:14:07.605Z,0
2019-02-16T05:14:59.760Z,0
2019-02-16T05:15:52.107Z,0
2019-02-16T05:16:44.852Z,0
2019-02-16T05:17:36.714Z,0
2019-02-16T05:18:28.924Z,0
2019-02-16T05:19:21.049Z,0
2019-02-16T05:20:13.734Z,0
2019-02-16T05:21:06.008Z,0
2019-02-16T05:21:57.952Z,0
2019-02-16T05:22:50.114Z,0
2019-02-16T05:23:43.013Z,0
2019-02-16T05:24:35.418Z,0
2019-02-16T05:25:27.509Z,0
2019-02-16T05:26:19.917Z,0
2019-02-16T05:27:12.106Z,0
2019-02-16T05:28:04.007Z,0
2019-02-16T05:28:56.521Z,0
2019-02-16T05:29:49.120Z,0
2019-02-16T05:30:41.430Z,0
2019-02-16T05:31:33.484Z,0
2019-02-16T05:32:25.722Z,0
2019-02-16T05:33:17.675Z,0
2019-02-16T05:34:10.060Z,0
2019-02-16T05:35:02.330Z,0
2019-02-16T05:35:54.478Z,0
2019-02-16T05:36:46.869Z,0
2019-02-16T05:37:38.669Z,0
2019-02-16T05:38:31.025Z,0
2019-02-16T05:39:23.700Z,0
2019-02-16T05:40:15.954Z,0
2019-02-16T05:41:08.522Z,0
2019-02-16T05:42:01.005Z,0
2019-02-16T05:42:53.606Z,0
2019-02-16T05:43:45.838Z,0
2019-02-16T05:44:37.817Z,0
2019-02-16T05:45:30.592Z,0
2019-02-16T05:46:24.606Z,0
2019-02-16T05:47:14.869Z,0
2019-02-16T05:48:06.839Z,0
2019-02-16T05:48:55.802Z,0
2019-02-16T05:51:05.402Z,0
2019-02-16T05:51:58.134Z,0
2019-02-16T05:52:54.289Z,0
2019-02-16T05:53:43.794Z,0
2019-02-16T05:54:36.130Z,0
2019-02-16T05:55:28.465Z,0
2019-02-16T05:56:21.006Z,0
2019-02-16T05:57:13.480Z,0
2019-02-16T05:58:06.067Z,0
2019-02-16T05:58:58.387Z,0
2019-02-16T05:59:50.952Z,0
2019-02-16T06:00:43.482Z,0
2019-02-16T06:01:35.960Z,0
2019-02-16T06:02:28.452Z,0
2019-02-16T06:03:20.804Z,0
2019-02-16T06:04:14.773Z,0
2019-02-16T06:05:07.089Z,0
2019-02-16T06:05:59.282Z,0
2019-02-16T06:06:50.959Z,0
2019-02-16T06:07:43.227Z,0
2019-02-16T06:08:35.459Z,0
2019-02-16T06:09:27.911Z,0
2019-02-16T06:10:20.254Z,4
2019-02-16T06:11:12.503Z,0
2019-02-16T06:12:05.082Z,0
2019-02-16T06:12:57.145Z,0
2019-02-16T06:13:49.446Z,4
2019-02-16T06:14:42.369Z,0
2019-02-16T06:15:35.049Z,4
2019-02-16T06:16:27.469Z,4
2019-02-16T06:17:20.017Z,0
2019-02-16T06:18:13.056Z,4
2019-02-16T06:19:05.368Z,8
2019-02-16T06:19:58.111Z,4
2019-02-16T06:20:50.997Z,4
2019-02-16T06:21:43.414Z,8
2019-02-16T06:22:36.025Z,8
2019-02-16T06:23:28.542Z,12
2019-02-16T06:24:21.111Z,8
2019-02-16T06:25:13.497Z,12
2019-02-16T06:26:05.827Z,16
2019-02-16T06:26:58.427Z,16
2019-02-16T06:27:50.874Z,20
2019-02-16T06:28:43.346Z,20
2019-02-16T06:29:35.683Z,24
2019-02-16T06:30:27.599Z,28
2019-02-16T06:31:19.600Z,32
2019-02-16T06:32:12.230Z,36
2019-02-16T06:34:45.391Z,48
2019-02-16T06:35:38.026Z,52
2019-02-16T06:36:30.313Z,60
2019-02-16T06:37:22.443Z,64
2019-02-16T06:38:14.669Z,72
2019-02-16T06:39:06.861Z,76
2019-02-16T06:39:59.324Z,84
2019-02-16T06:40:51.558Z,88
2019-02-16T06:41:43.748Z,96
2019-02-16T06:42:35.858Z,104
2019-02-16T06:43:27.897Z,112
2019-02-16T06:44:19.893Z,120
2019-02-16T06:45:12.326Z,128
2019-02-16T06:46:04.296Z,140
2019-02-16T06:46:56.723Z,144
2019-02-16T06:47:48.676Z,156
2019-02-16T06:48:40.888Z,168
2019-02-16T06:49:33.247Z,180
2019-02-16T06:50:26.307Z,192
2019-02-16T06:51:18.354Z,208
2019-02-16T06:52:10.601Z,228
2019-02-16T06:53:02.632Z,264
2019-02-16T06:53:54.808Z,288
2019-02-16T06:54:47.015Z,316
2019-02-16T06:55:39.248Z,340
2019-02-16T06:56:31.233Z,408
2019-02-16T06:57:23.281Z,432
2019-02-16T06:58:15.445Z,480
2019-02-16T06:59:07.779Z,552
2019-02-16T07:00:00.392Z,596
2019-02-16T07:00:52.229Z,632
2019-02-16T07:01:44.330Z,664
2019-02-16T07:02:36.709Z,752
2019-02-16T07:03:19.818Z,892
2019-02-16T07:04:00.292Z,1000
2019-02-16T07:04:40.751Z,1068
2019-02-16T07:05:21.822Z,1200
2019-02-16T07:06:02.469Z,1252
2019-02-16T07:06:43.262Z,1296
2019-02-16T07:07:23.691Z,1332
2019-02-16T07:08:04.609Z,1384
2019-02-16T07:08:45.499Z,1416
2019-02-16T07:09:26.474Z,1472
2019-02-16T07:10:06.933Z,1548
2019-02-16T07:10:47.661Z,1636
2019-02-16T07:11:28.061Z,1700
2019-02-16T07:12:08.508Z,1760
2019-02-16T07:12:48.997Z,1852
2019-02-16T07:13:29.349Z,1904
2019-02-16T07:14:09.987Z,2048
2019-02-16T07:14:50.648Z,2084
2019-02-16T07:15:31.104Z,2140
2019-02-16T07:16:11.581Z,2220
2019-02-16T07:16:51.995Z,2256
2019-02-16T07:17:32.679Z,2164
2019-02-16T07:18:13.219Z,2024
2019-02-16T07:18:54.013Z,1956
2019-02-16T07:19:34.230Z,1972
2019-02-16T07:20:14.921Z,2008
2019-02-16T07:20:55.382Z,2032
2019-02-16T07:21:35.918Z,2040
2019-02-16T07:22:16.488Z,2084
2019-02-16T07:22:58.039Z,2180
2019-02-16T07:23:38.724Z,2260
2019-02-16T07:24:19.243Z,2304
2019-02-16T07:25:00.354Z,2344
2019-02-16T07:25:40.872Z,2404
2019-02-16T07:26:22.138Z,2460
2019-02-16T07:27:02.292Z,2472
2019-02-16T07:27:43.056Z,2548
2019-02-16T07:28:23.634Z,2628
2019-02-16T07:29:03.955Z,2752
2019-02-16T07:29:44.314Z,2856
2019-02-16T07:30:24.771Z,2976
2019-02-16T07:31:05.389Z,3008
2019-02-16T07:31:46.121Z,2872
2019-02-16T07:32:26.384Z,2648
2019-02-16T07:33:06.895Z,2568
2019-02-16T07:33:47.491Z,2536
2019-02-16T07:34:27.890Z,2660
2019-02-16T07:35:08.454Z,2660
2019-02-16T07:35:48.844Z,2604
2019-02-16T07:36:29.254Z,2576
2019-02-16T07:37:09.748Z,2576
2019-02-16T07:37:50.078Z,2628
2019-02-16T07:38:30.584Z,2680
2019-02-16T07:39:10.995Z,2708
2019-02-16T07:39:51.431Z,2748
2019-02-16T07:40:31.875Z,2804
2019-02-16T07:41:12.410Z,2836
2019-02-16T07:41:52.910Z,2852
2019-02-16T07:42:33.315Z,2900
2019-02-16T07:43:13.772Z,2864
2019-02-16T07:43:54.222Z,2824
2019-02-16T07:44:34.929Z,2780
2019-02-16T07:45:15.246Z,2768
2019-02-16T07:45:55.703Z,2804
2019-02-16T07:46:36.101Z,2788
2019-02-16T07:47:16.471Z,2752
2019-02-16T07:47:56.993Z,2692
2019-02-16T07:48:37.491Z,2800
2019-02-16T07:49:18.142Z,2840
2019-02-16T07:49:58.564Z,2992
2019-02-16T07:50:38.967Z,3100
2019-02-16T07:51:19.546Z,3184
2019-02-16T07:52:00.117Z,3244
2019-02-16T07:52:40.623Z,3288
2019-02-16T07:53:21.226Z,3360
2019-02-16T07:54:01.852Z,3392
2019-02-16T07:54:42.250Z,3424
2019-02-16T07:55:22.620Z,3364
2019-02-16T07:56:03.200Z,3188
2019-02-16T07:56:43.980Z,3028
2019-02-16T07:57:24.445Z,2896
2019-02-16T07:58:05.138Z,2824
2019-02-16T07:58:45.618Z,2736
2019-02-16T07:59:26.354Z,2580
2019-02-16T08:00:06.630Z,2392
2019-02-16T08:00:47.089Z,2316
2019-02-16T08:01:27.819Z,2280
2019-02-16T08:02:08.771Z,2284
2019-02-16T08:02:49.490Z,2260
2019-02-16T08:03:29.781Z,2196
2019-02-16T08:04:10.835Z,1952
2019-02-16T08:04:51.429Z,1624
2019-02-16T08:05:32.116Z,1428
2019-02-16T08:06:12.545Z,1248
2019-02-16T08:06:53.344Z,1216
2019-02-16T08:07:33.972Z,1208
2019-02-16T08:08:14.489Z,1196
2019-02-16T08:08:55.034Z,1188
2019-02-16T08:09:35.406Z,1188
2019-02-16T08:10:15.728Z,1180
2019-02-16T08:10:56.221Z,1172
2019-02-16T08:11:36.802Z,1172
2019-02-16T08:12:17.514Z,1172
2019-02-16T08:12:57.902Z,1168
2019-02-16T08:13:38.218Z,1172
2019-02-16T08:14:18.736Z,1168
2019-02-16T08:14:59.337Z,1168
2019-02-16T08:15:40.039Z,1168
2019-02-16T08:18:04.162Z,1172
2019-02-16T08:18:56.642Z,1172
2019-02-16T08:19:48.743Z,1172
2019-02-16T08:20:42.077Z,1176
2019-02-16T08:21:34.026Z,1176
2019-02-16T08:22:27.406Z,1180
2019-02-16T08:23:20.337Z,1184
2019-02-16T08:24:12.999Z,1184
2019-02-16T08:25:06.361Z,1188
2019-02-16T08:25:59.583Z,1192
2019-02-16T08:26:53.610Z,1192
2019-02-16T08:27:49.495Z,1192
2019-02-16T08:28:41.566Z,1196
2019-02-16T08:29:35.313Z,1192
2019-02-16T08:30:28.340Z,1200
2019-02-16T08:31:21.555Z,1200
2019-02-16T08:32:14.550Z,1204
2019-02-16T08:33:08.273Z,1204
2019-02-16T08:34:00.536Z,1208
2019-02-16T08:34:53.157Z,1212
2019-02-16T08:35:53.826Z,1212
2019-02-16T08:36:46.558Z,1216
2019-02-16T08:37:39.326Z,1212
2019-02-16T08:38:31.747Z,1220
2019-02-16T08:39:26.878Z,1224
2019-02-16T08:40:19.106Z,1220
2019-02-16T08:41:14.063Z,1228
2019-02-16T08:42:06.708Z,1228
2019-02-16T08:43:06.667Z,1228
2019-02-16T08:44:00.640Z,1232
2019-02-16T08:48:29.967Z,1240
2019-02-16T08:49:22.458Z,1236
2019-02-16T08:50:14.932Z,1236
2019-02-16T08:51:07.432Z,1236
2019-02-16T08:51:59.895Z,1240
2019-02-16T08:52:52.557Z,1236
2019-02-16T08:53:49.746Z,1240
2019-02-16T08:54:37.893Z,1240
2019-02-16T08:55:31.031Z,1240
2019-02-16T08:56:40.569Z,1240
2019-02-16T09:00:58.805Z,1248
2019-02-16T09:01:51.620Z,1244
2019-02-16T09:02:44.877Z,1244
2019-02-16T09:03:38.688Z,1240
2019-02-16T09:04:32.666Z,1240
2019-02-16T09:05:27.907Z,1244
2019-02-16T09:06:20.135Z,1248
2019-02-16T09:07:13.822Z,1244
2019-02-16T09:08:06.953Z,1240
2019-02-16T09:09:00.907Z,1244
2019-02-16T09:09:54.198Z,1244
2019-02-16T09:10:46.668Z,1248
2019-02-16T09:13:46.088Z,1252
2019-02-16T09:14:39.329Z,1252
2019-02-16T09:15:31.817Z,1252
2019-02-16T09:16:25.532Z,1256
2019-02-16T09:17:18.888Z,1256
2019-02-16T09:18:11.830Z,1252
2019-02-16T09:19:05.862Z,1252
2019-02-16T09:19:58.306Z,1252
2019-02-16T09:20:51.777Z,1252
2019-02-16T09:21:44.833Z,1252
2019-02-16T09:22:39.596Z,1252
2019-02-16T09:23:32.850Z,1252
2019-02-16T09:24:25.475Z,1252
2019-02-16T09:25:18.515Z,1252
2019-02-16T09:26:12.930Z,1252
2019-02-16T09:27:06.326Z,1256
2019-02-16T09:27:58.723Z,1248
2019-02-16T09:28:51.388Z,1248
2019-02-16T09:29:45.400Z,1252
2019-02-16T09:30:37.558Z,1252
2019-02-16T09:31:34.685Z,1252
2019-02-16T09:32:28.233Z,1256
2019-02-16T09:33:25.302Z,1256
2019-02-16T09:34:16.937Z,1256
2019-02-16T09:35:09.546Z,1256
2019-02-16T09:36:02.085Z,1252
2019-02-16T09:36:54.984Z,1248
2019-02-16T09:37:47.663Z,1252
2019-02-16T09:38:41.238Z,1252
2019-02-16T09:39:33.964Z,1248
2019-02-16T09:40:27.068Z,1252
2019-02-16T09:41:23.421Z,1248
2019-02-16T09:42:20.319Z,1248
2019-02-16T09:43:13.131Z,1244
2019-02-16T09:44:05.782Z,1248
2019-02-16T09:44:59.966Z,1248
2019-02-16T09:45:53.278Z,1244
2019-02-16T09:46:47.142Z,1244
2019-02-16T09:47:41.283Z,1236
2019-02-16T09:48:34.531Z,1236
2019-02-16T09:49:26.847Z,1240
2019-02-16T09:50:19.739Z,1236
2019-02-16T09:51:11.854Z,1240
2019-02-16T09:52:05.256Z,1236
2019-02-16T09:52:58.404Z,1236
2019-02-16T09:53:50.567Z,1236
2019-02-16T09:54:42.964Z,1236
2019-02-16T09:55:36.019Z,1236
2019-02-16T09:56:28.330Z,1232
2019-02-16T09:57:22.395Z,1236
2019-02-16T09:58:14.886Z,1232
2019-02-16T09:59:07.997Z,1228
2019-02-16T10:00:00.357Z,1232
2019-02-16T10:00:53.348Z,1228
2019-02-16T10:01:46.135Z,1232
2019-02-16T10:02:38.740Z,1232
2019-02-16T10:03:31.913Z,1236
2019-02-16T10:04:24.347Z,1228
2019-02-16T10:05:17.912Z,1232
2019-02-16T10:06:10.131Z,1228
2019-02-16T10:07:02.549Z,1228
2019-02-16T10:07:54.924Z,1228
2019-02-16T10:08:48.282Z,1228
2019-02-16T10:09:28.863Z,1228
2019-02-16T10:10:09.824Z,1232
2019-02-16T10:10:50.673Z,1232
2019-02-16T10:11:31.388Z,1232
2019-02-16T10:12:29.649Z,1228
2019-02-16T10:16:27.685Z,1224
2019-02-16T10:17:19.770Z,1224
2019-02-16T10:18:12.157Z,1224
2019-02-16T10:19:05.911Z,1224
2019-02-16T10:19:59.341Z,1220
2019-02-16T10:20:51.366Z,1216
2019-02-16T10:21:44.468Z,1212
2019-02-16T10:22:36.696Z,1208
2019-02-16T10:23:28.898Z,1208
2019-02-16T10:24:24.045Z,1212
2019-02-16T10:25:16.906Z,1208
2019-02-16T10:26:11.436Z,1208
2019-02-16T10:27:06.478Z,1208
2019-02-16T10:28:00.966Z,1212
2019-02-16T10:28:53.630Z,1208
2019-02-16T11:07:01.901Z,1160
2019-02-16T11:07:55.437Z,1160
2019-02-16T11:08:48.167Z,1156
2019-02-16T11:09:41.090Z,1156
2019-02-16T11:10:35.183Z,1156
2019-02-16T11:11:30.847Z,1152
2019-02-16T11:12:23.837Z,1148
2019-02-16T11:13:16.878Z,1148
2019-02-16T11:14:09.322Z,1148
2019-02-16T11:15:04.159Z,1144
2019-02-16T11:15:59.026Z,1144
2019-02-16T11:16:54.067Z,1140
2019-02-16T11:20:54.472Z,1136
2019-02-16T11:21:47.509Z,1132
2019-02-16T11:22:41.598Z,1132
2019-02-16T11:23:34.273Z,1132
2019-02-16T11:24:35.773Z,1128
2019-02-16T11:25:22.643Z,1128
2019-02-16T11:26:16.276Z,1128
2019-02-16T11:27:10.411Z,1124
2019-02-16T11:28:02.877Z,1128
2019-02-16T11:28:55.314Z,1124
2019-02-16T11:29:50.012Z,1124
2019-02-16T11:30:42.994Z,1124
2019-02-16T11:31:35.785Z,1120
2019-02-16T11:32:29.704Z,1120
2019-02-16T11:33:22.842Z,1112
2019-02-16T11:34:17.678Z,1112
2019-02-16T11:35:18.463Z,1116
2019-02-16T11:36:20.219Z,1116
2019-02-16T11:37:17.001Z,1116
2019-02-16T11:38:09.946Z,1116
2019-02-16T11:39:02.561Z,1112
2019-02-16T11:39:55.313Z,1112
2019-02-16T11:40:47.620Z,1112
2019-02-16T11:41:41.512Z,1112
2019-02-16T11:42:36.531Z,1108
2019-02-16T11:46:58.360Z,1108
2019-02-16T11:47:50.593Z,1104
2019-02-16T11:48:43.071Z,1104
2019-02-16T11:49:36.674Z,1108
2019-02-16T11:50:29.689Z,1104
2019-02-16T11:51:21.876Z,1104
2019-02-16T11:52:14.091Z,1100
2019-02-16T11:53:08.086Z,1100
2019-02-16T11:54:01.504Z,1096
2019-02-16T11:54:55.568Z,1096
2019-02-16T11:55:47.484Z,1096
2019-02-16T11:56:40.073Z,1092
2019-02-16T11:57:33.100Z,1092
2019-02-16T11:58:27.849Z,1092
2019-02-16T11:59:22.524Z,1088
2019-02-16T12:00:15.149Z,1092
2019-02-16T12:01:08.428Z,1088
2019-02-16T12:02:00.579Z,1088
2019-02-16T12:02:57.499Z,1084
2019-02-16T12:03:53.269Z,1088
2019-02-16T12:04:45.180Z,1084
2019-02-16T12:05:37.643Z,1084
2019-02-16T12:06:30.316Z,1088
2019-02-16T12:07:23.617Z,1084
2019-02-16T12:08:17.148Z,1084
2019-02-16T12:09:09.807Z,1084
2019-02-16T12:09:50.730Z,1080
2019-02-16T12:10:31.260Z,1076
2019-02-16T12:11:11.768Z,1076
2019-02-16T12:11:52.846Z,1076
2019-02-16T12:12:33.481Z,1080
2019-02-16T12:13:14.269Z,1076
2019-02-16T12:13:54.643Z,1076
2019-02-16T12:14:35.350Z,1076
2019-02-16T12:15:15.745Z,1076
2019-02-16T12:15:56.392Z,1072
2019-02-16T12:16:37.014Z,1072
2019-02-16T12:17:17.383Z,1068
2019-02-16T12:17:57.975Z,1060
2019-02-16T12:18:38.372Z,1060
2019-02-16T12:19:18.806Z,1060
2019-02-16T12:20:00.183Z,1064
2019-02-16T12:20:40.602Z,1068
2019-02-16T12:21:21.335Z,1068
2019-02-16T12:22:01.954Z,1064
2019-02-16T12:22:42.807Z,1060
2019-02-16T12:23:23.269Z,1060
2019-02-16T12:24:04.116Z,1064
2019-02-16T12:24:44.551Z,1064
2019-02-16T12:25:25.199Z,1064
2019-02-16T12:26:05.833Z,1064